sensor_id;sensor_type;location;lat;lon;timestamp;P1;durP1;ratioP1;P2;durP2;ratioP2
54995;SDS011;40893;47.146;9.126;2022-08-25T00:00:16;2.92;;;2.30;;
54995;SDS011;40893;47.146;9.126;2022-08-25T00:02:44;3.10;;;2.53;;
54995;SDS011;40893;47.146;9.126;2022-08-25T00:05:11;6.80;;;2.80;;
54995;SDS011;40893;47.146;9.126;2022-08-25T00:07:36;3.95;;;2.75;;
54995;SDS011;40893;47.146;9.126;2022-08-25T00:10:03;6.13;;;2.92;;
54995;SDS011;40893;47.146;9.126;2022-08-25T00:12:30;4.13;;;2.35;;
54995;SDS011;40893;47.146;9.126;2022-08-25T00:14:55;3.35;;;2.50;;
54995;SDS011;40893;47.146;9.126;2022-08-25T00:17:21;8.15;;;2.80;;
54995;SDS011;40893;47.146;9.126;2022-08-25T00:19:46;3.67;;;2.58;;
54995;SDS011;40893;47.146;9.126;2022-08-25T00:22:12;6.95;;;2.83;;
54995;SDS011;40893;47.146;9.126;2022-08-25T00:24:37;6.10;;;3.45;;
54995;SDS011;40893;47.146;9.126;2022-08-25T00:27:04;3.92;;;2.60;;
54995;SDS011;40893;47.146;9.126;2022-08-25T00:29:30;7.63;;;3.40;;
54995;SDS011;40893;47.146;9.126;2022-08-25T00:31:57;7.95;;;2.78;;
54995;SDS011;40893;47.146;9.126;2022-08-25T00:34:31;3.50;;;2.50;;
54995;SDS011;40893;47.146;9.126;2022-08-25T00:37:02;3.25;;;2.65;;
54995;SDS011;40893;47.146;9.126;2022-08-25T00:39:28;2.75;;;2.35;;
54995;SDS011;40893;47.146;9.126;2022-08-25T00:41:55;5.03;;;2.70;;
54995;SDS011;40893;47.146;9.126;2022-08-25T00:44:22;5.72;;;2.65;;
54995;SDS011;40893;47.146;9.126;2022-08-25T00:46:50;3.75;;;2.47;;
54995;SDS011;40893;47.146;9.126;2022-08-25T00:51:51;3.03;;;2.75;;
54995;SDS011;40893;47.146;9.126;2022-08-25T00:54:23;3.60;;;3.30;;
54995;SDS011;40893;47.146;9.126;2022-08-25T00:56:52;3.65;;;2.58;;
54995;SDS011;40893;47.146;9.126;2022-08-25T00:59:20;4.25;;;2.60;;
54995;SDS011;40893;47.146;9.126;2022-08-25T01:01:47;3.00;;;2.50;;
54995;SDS011;40893;47.146;9.126;2022-08-25T01:04:14;3.08;;;2.35;;
54995;SDS011;40893;47.146;9.126;2022-08-25T01:06:40;5.03;;;2.67;;
54995;SDS011;40893;47.146;9.126;2022-08-25T01:09:08;3.70;;;2.58;;
54995;SDS011;40893;47.146;9.126;2022-08-25T01:11:36;3.80;;;2.47;;
54995;SDS011;40893;47.146;9.126;2022-08-25T01:14:02;2.97;;;2.28;;
54995;SDS011;40893;47.146;9.126;2022-08-25T01:16:33;6.68;;;2.50;;
54995;SDS011;40893;47.146;9.126;2022-08-25T01:19:01;21.60;;;3.00;;
54995;SDS011;40893;47.146;9.126;2022-08-25T01:21:29;3.17;;;2.22;;
54995;SDS011;40893;47.146;9.126;2022-08-25T01:24:01;3.08;;;2.40;;
54995;SDS011;40893;47.146;9.126;2022-08-25T01:26:28;2.80;;;2.60;;
54995;SDS011;40893;47.146;9.126;2022-08-25T01:28:56;7.75;;;2.63;;
54995;SDS011;40893;47.146;9.126;2022-08-25T01:31:41;2.67;;;2.42;;
54995;SDS011;40893;47.146;9.126;2022-08-25T01:34:07;6.30;;;2.67;;
54995;SDS011;40893;47.146;9.126;2022-08-25T01:36:33;3.50;;;2.50;;
54995;SDS011;40893;47.146;9.126;2022-08-25T01:38:59;3.63;;;2.70;;
54995;SDS011;40893;47.146;9.126;2022-08-25T01:41:34;2.85;;;2.55;;
54995;SDS011;40893;47.146;9.126;2022-08-25T01:44:12;3.10;;;2.42;;
54995;SDS011;40893;47.146;9.126;2022-08-25T01:46:39;5.70;;;2.95;;
54995;SDS011;40893;47.146;9.126;2022-08-25T01:49:05;2.70;;;2.50;;
54995;SDS011;40893;47.146;9.126;2022-08-25T01:51:37;3.88;;;2.60;;
54995;SDS011;40893;47.146;9.126;2022-08-25T01:54:08;2.50;;;2.30;;
54995;SDS011;40893;47.146;9.126;2022-08-25T01:56:33;2.92;;;2.63;;
54995;SDS011;40893;47.146;9.126;2022-08-25T01:58:59;5.50;;;2.78;;
54995;SDS011;40893;47.146;9.126;2022-08-25T02:01:25;5.47;;;2.80;;
54995;SDS011;40893;47.146;9.126;2022-08-25T02:03:52;5.95;;;2.60;;
54995;SDS011;40893;47.146;9.126;2022-08-25T02:06:24;4.53;;;2.90;;
54995;SDS011;40893;47.146;9.126;2022-08-25T02:08:53;3.72;;;2.60;;
54995;SDS011;40893;47.146;9.126;2022-08-25T02:11:21;9.68;;;2.78;;
54995;SDS011;40893;47.146;9.126;2022-08-25T02:13:48;4.88;;;2.80;;
54995;SDS011;40893;47.146;9.126;2022-08-25T02:16:16;4.97;;;2.60;;
54995;SDS011;40893;47.146;9.126;2022-08-25T02:18:46;3.42;;;2.42;;
54995;SDS011;40893;47.146;9.126;2022-08-25T02:21:12;2.95;;;2.75;;
54995;SDS011;40893;47.146;9.126;2022-08-25T02:23:39;3.03;;;2.60;;
54995;SDS011;40893;47.146;9.126;2022-08-25T02:26:07;2.75;;;2.35;;
54995;SDS011;40893;47.146;9.126;2022-08-25T02:28:34;2.47;;;2.28;;
54995;SDS011;40893;47.146;9.126;2022-08-25T02:31:01;4.50;;;2.55;;
54995;SDS011;40893;47.146;9.126;2022-08-25T02:33:30;3.85;;;2.60;;
54995;SDS011;40893;47.146;9.126;2022-08-25T02:35:57;5.55;;;2.40;;
54995;SDS011;40893;47.146;9.126;2022-08-25T02:38:23;3.22;;;2.70;;
54995;SDS011;40893;47.146;9.126;2022-08-25T02:40:52;6.53;;;2.85;;
54995;SDS011;40893;47.146;9.126;2022-08-25T02:43:18;5.65;;;2.92;;
54995;SDS011;40893;47.146;9.126;2022-08-25T02:45:44;3.47;;;2.70;;
54995;SDS011;40893;47.146;9.126;2022-08-25T02:48:10;2.60;;;2.40;;
54995;SDS011;40893;47.146;9.126;2022-08-25T02:50:35;4.22;;;2.40;;
54995;SDS011;40893;47.146;9.126;2022-08-25T02:53:01;2.70;;;2.50;;
54995;SDS011;40893;47.146;9.126;2022-08-25T02:55:26;3.53;;;2.55;;
54995;SDS011;40893;47.146;9.126;2022-08-25T02:57:52;5.75;;;2.30;;
54995;SDS011;40893;47.146;9.126;2022-08-25T03:00:17;4.28;;;2.25;;
54995;SDS011;40893;47.146;9.126;2022-08-25T03:02:43;4.20;;;2.40;;
54995;SDS011;40893;47.146;9.126;2022-08-25T03:05:10;4.65;;;2.40;;
54995;SDS011;40893;47.146;9.126;2022-08-25T03:07:38;3.20;;;2.50;;
54995;SDS011;40893;47.146;9.126;2022-08-25T03:10:05;5.00;;;2.55;;
54995;SDS011;40893;47.146;9.126;2022-08-25T03:12:33;3.60;;;2.47;;
54995;SDS011;40893;47.146;9.126;2022-08-25T03:14:59;5.65;;;2.65;;
54995;SDS011;40893;47.146;9.126;2022-08-25T03:17:25;4.40;;;2.90;;
54995;SDS011;40893;47.146;9.126;2022-08-25T03:19:50;5.85;;;2.80;;
54995;SDS011;40893;47.146;9.126;2022-08-25T03:22:16;3.10;;;2.40;;
54995;SDS011;40893;47.146;9.126;2022-08-25T03:24:41;6.82;;;2.78;;
54995;SDS011;40893;47.146;9.126;2022-08-25T03:27:08;2.63;;;2.42;;
54995;SDS011;40893;47.146;9.126;2022-08-25T03:29:33;4.53;;;2.63;;
54995;SDS011;40893;47.146;9.126;2022-08-25T03:31:59;3.97;;;2.63;;
54995;SDS011;40893;47.146;9.126;2022-08-25T03:34:27;3.58;;;2.80;;
54995;SDS011;40893;47.146;9.126;2022-08-25T03:36:55;2.70;;;2.50;;
54995;SDS011;40893;47.146;9.126;2022-08-25T03:39:22;5.72;;;2.38;;
54995;SDS011;40893;47.146;9.126;2022-08-25T03:41:49;4.47;;;2.42;;
54995;SDS011;40893;47.146;9.126;2022-08-25T03:44:16;3.92;;;2.60;;
54995;SDS011;40893;47.146;9.126;2022-08-25T03:46:45;4.38;;;2.67;;
54995;SDS011;40893;47.146;9.126;2022-08-25T03:49:13;2.45;;;2.17;;
54995;SDS011;40893;47.146;9.126;2022-08-25T03:51:42;4.05;;;2.22;;
54995;SDS011;40893;47.146;9.126;2022-08-25T03:54:11;3.03;;;2.35;;
54995;SDS011;40893;47.146;9.126;2022-08-25T03:56:38;4.40;;;2.55;;
54995;SDS011;40893;47.146;9.126;2022-08-25T03:59:04;3.35;;;2.33;;
54995;SDS011;40893;47.146;9.126;2022-08-25T04:01:33;2.90;;;2.65;;
54995;SDS011;40893;47.146;9.126;2022-08-25T04:03:59;2.75;;;1.98;;
54995;SDS011;40893;47.146;9.126;2022-08-25T04:06:24;2.85;;;2.10;;
54995;SDS011;40893;47.146;9.126;2022-08-25T04:08:50;2.58;;;2.38;;
54995;SDS011;40893;47.146;9.126;2022-08-25T04:11:17;2.65;;;2.45;;
54995;SDS011;40893;47.146;9.126;2022-08-25T04:13:45;2.92;;;2.13;;
54995;SDS011;40893;47.146;9.126;2022-08-25T04:16:16;2.55;;;2.33;;
54995;SDS011;40893;47.146;9.126;2022-08-25T04:18:47;3.85;;;2.28;;
54995;SDS011;40893;47.146;9.126;2022-08-25T04:21:14;3.90;;;1.98;;
54995;SDS011;40893;47.146;9.126;2022-08-25T04:23:41;3.95;;;2.25;;
54995;SDS011;40893;47.146;9.126;2022-08-25T04:31:04;2.60;;;2.40;;
54995;SDS011;40893;47.146;9.126;2022-08-25T04:33:30;6.38;;;2.33;;
54995;SDS011;40893;47.146;9.126;2022-08-25T04:35:56;4.43;;;2.42;;
54995;SDS011;40893;47.146;9.126;2022-08-25T04:38:23;2.53;;;2.33;;
54995;SDS011;40893;47.146;9.126;2022-08-25T04:40:56;2.85;;;2.20;;
54995;SDS011;40893;47.146;9.126;2022-08-25T04:43:22;6.30;;;2.38;;
54995;SDS011;40893;47.146;9.126;2022-08-25T04:45:48;2.92;;;2.22;;
54995;SDS011;40893;47.146;9.126;2022-08-25T04:48:13;3.30;;;2.40;;
54995;SDS011;40893;47.146;9.126;2022-08-25T04:50:39;4.85;;;2.20;;
54995;SDS011;40893;47.146;9.126;2022-08-25T04:53:05;2.50;;;2.30;;
54995;SDS011;40893;47.146;9.126;2022-08-25T04:55:30;5.47;;;2.42;;
54995;SDS011;40893;47.146;9.126;2022-08-25T04:57:56;3.25;;;2.45;;
54995;SDS011;40893;47.146;9.126;2022-08-25T05:00:21;6.00;;;2.28;;
54995;SDS011;40893;47.146;9.126;2022-08-25T05:02:47;2.05;;;1.90;;
54995;SDS011;40893;47.146;9.126;2022-08-25T05:05:13;5.72;;;2.30;;
54995;SDS011;40893;47.146;9.126;2022-08-25T05:07:39;2.47;;;2.20;;
54995;SDS011;40893;47.146;9.126;2022-08-25T05:10:04;2.58;;;2.38;;
54995;SDS011;40893;47.146;9.126;2022-08-25T05:12:30;5.07;;;2.47;;
54995;SDS011;40893;47.146;9.126;2022-08-25T05:14:56;3.63;;;2.67;;
54995;SDS011;40893;47.146;9.126;2022-08-25T05:17:42;8.30;;;2.55;;
54995;SDS011;40893;47.146;9.126;2022-08-25T05:20:08;3.40;;;2.50;;
54995;SDS011;40893;47.146;9.126;2022-08-25T05:22:33;3.33;;;2.30;;
54995;SDS011;40893;47.146;9.126;2022-08-25T05:24:59;3.45;;;2.40;;
54995;SDS011;40893;47.146;9.126;2022-08-25T05:27:24;5.72;;;2.53;;
54995;SDS011;40893;47.146;9.126;2022-08-25T05:29:50;4.53;;;2.30;;
54995;SDS011;40893;47.146;9.126;2022-08-25T05:32:15;3.70;;;2.58;;
54995;SDS011;40893;47.146;9.126;2022-08-25T05:34:41;2.75;;;2.10;;
54995;SDS011;40893;47.146;9.126;2022-08-25T05:37:06;4.68;;;2.50;;
54995;SDS011;40893;47.146;9.126;2022-08-25T05:39:32;6.63;;;2.28;;
54995;SDS011;40893;47.146;9.126;2022-08-25T05:41:58;2.25;;;2.08;;
54995;SDS011;40893;47.146;9.126;2022-08-25T05:44:23;2.47;;;2.28;;
54995;SDS011;40893;47.146;9.126;2022-08-25T05:46:49;3.80;;;2.03;;
54995;SDS011;40893;47.146;9.126;2022-08-25T05:49:15;4.25;;;2.30;;
54995;SDS011;40893;47.146;9.126;2022-08-25T05:51:41;2.47;;;2.05;;
54995;SDS011;40893;47.146;9.126;2022-08-25T05:54:06;2.65;;;2.25;;
54995;SDS011;40893;47.146;9.126;2022-08-25T05:56:32;3.67;;;2.13;;
54995;SDS011;40893;47.146;9.126;2022-08-25T05:58:57;2.55;;;2.10;;
54995;SDS011;40893;47.146;9.126;2022-08-25T06:01:25;3.22;;;2.10;;
54995;SDS011;40893;47.146;9.126;2022-08-25T06:04:11;3.08;;;1.98;;
54995;SDS011;40893;47.146;9.126;2022-08-25T06:06:38;3.35;;;2.00;;
54995;SDS011;40893;47.146;9.126;2022-08-25T06:09:04;2.10;;;2.00;;
54995;SDS011;40893;47.146;9.126;2022-08-25T06:11:32;2.67;;;2.00;;
54995;SDS011;40893;47.146;9.126;2022-08-25T06:13:58;1.98;;;1.75;;
54995;SDS011;40893;47.146;9.126;2022-08-25T06:16:23;1.80;;;1.58;;
54995;SDS011;40893;47.146;9.126;2022-08-25T06:18:49;3.47;;;2.20;;
54995;SDS011;40893;47.146;9.126;2022-08-25T06:21:14;4.85;;;2.00;;
54995;SDS011;40893;47.146;9.126;2022-08-25T06:23:42;3.30;;;1.95;;
54995;SDS011;40893;47.146;9.126;2022-08-25T06:26:11;2.65;;;1.98;;
54995;SDS011;40893;47.146;9.126;2022-08-25T06:28:37;2.05;;;1.85;;
54995;SDS011;40893;47.146;9.126;2022-08-25T06:31:03;2.00;;;1.80;;
54995;SDS011;40893;47.146;9.126;2022-08-25T06:33:29;3.17;;;1.88;;
54995;SDS011;40893;47.146;9.126;2022-08-25T06:35:55;3.00;;;2.05;;
54995;SDS011;40893;47.146;9.126;2022-08-25T06:38:21;2.20;;;2.00;;
54995;SDS011;40893;47.146;9.126;2022-08-25T06:40:47;3.53;;;2.00;;
54995;SDS011;40893;47.146;9.126;2022-08-25T06:43:14;3.38;;;1.83;;
54995;SDS011;40893;47.146;9.126;2022-08-25T06:45:40;2.13;;;1.85;;
54995;SDS011;40893;47.146;9.126;2022-08-25T06:48:08;2.30;;;1.90;;
54995;SDS011;40893;47.146;9.126;2022-08-25T06:50:34;2.25;;;2.00;;
54995;SDS011;40893;47.146;9.126;2022-08-25T06:53:01;2.20;;;2.00;;
54995;SDS011;40893;47.146;9.126;2022-08-25T06:55:27;1.90;;;1.70;;
54995;SDS011;40893;47.146;9.126;2022-08-25T06:57:52;2.10;;;1.77;;
54995;SDS011;40893;47.146;9.126;2022-08-25T07:00:18;4.35;;;2.05;;
54995;SDS011;40893;47.146;9.126;2022-08-25T07:02:44;2.47;;;2.03;;
54995;SDS011;40893;47.146;9.126;2022-08-25T07:05:11;5.07;;;2.08;;
54995;SDS011;40893;47.146;9.126;2022-08-25T07:07:36;3.22;;;2.13;;
54995;SDS011;40893;47.146;9.126;2022-08-25T07:10:02;2.72;;;2.00;;
54995;SDS011;40893;47.146;9.126;2022-08-25T07:12:29;1.80;;;1.70;;
54995;SDS011;40893;47.146;9.126;2022-08-25T07:14:54;2.13;;;1.92;;
54995;SDS011;40893;47.146;9.126;2022-08-25T07:17:20;1.92;;;1.83;;
54995;SDS011;40893;47.146;9.126;2022-08-25T07:19:48;1.77;;;1.67;;
54995;SDS011;40893;47.146;9.126;2022-08-25T07:22:14;2.13;;;1.88;;
54995;SDS011;40893;47.146;9.126;2022-08-25T07:24:39;2.03;;;1.88;;
54995;SDS011;40893;47.146;9.126;2022-08-25T07:27:05;2.00;;;1.90;;
54995;SDS011;40893;47.146;9.126;2022-08-25T07:29:31;2.38;;;1.77;;
54995;SDS011;40893;47.146;9.126;2022-08-25T07:31:58;4.55;;;1.90;;
54995;SDS011;40893;47.146;9.126;2022-08-25T07:34:27;2.28;;;2.08;;
54995;SDS011;40893;47.146;9.126;2022-08-25T07:37:11;2.17;;;2.00;;
54995;SDS011;40893;47.146;9.126;2022-08-25T07:39:36;1.92;;;1.80;;
54995;SDS011;40893;47.146;9.126;2022-08-25T07:42:02;2.28;;;2.08;;
54995;SDS011;40893;47.146;9.126;2022-08-25T07:44:28;2.88;;;1.90;;
54995;SDS011;40893;47.146;9.126;2022-08-25T07:46:55;3.03;;;1.92;;
54995;SDS011;40893;47.146;9.126;2022-08-25T07:49:21;2.22;;;2.00;;
54995;SDS011;40893;47.146;9.126;2022-08-25T07:51:49;2.08;;;1.85;;
54995;SDS011;40893;47.146;9.126;2022-08-25T07:54:16;4.10;;;2.35;;
54995;SDS011;40893;47.146;9.126;2022-08-25T07:56:42;3.53;;;2.00;;
54995;SDS011;40893;47.146;9.126;2022-08-25T07:59:08;2.00;;;1.70;;
54995;SDS011;40893;47.146;9.126;2022-08-25T08:01:34;3.28;;;1.80;;
54995;SDS011;40893;47.146;9.126;2022-08-25T08:04:01;2.83;;;2.20;;
54995;SDS011;40893;47.146;9.126;2022-08-25T08:06:26;4.25;;;2.00;;
54995;SDS011;40893;47.146;9.126;2022-08-25T08:08:52;2.15;;;1.95;;
54995;SDS011;40893;47.146;9.126;2022-08-25T08:11:23;4.45;;;2.00;;
54995;SDS011;40893;47.146;9.126;2022-08-25T08:13:54;4.07;;;1.92;;
54995;SDS011;40893;47.146;9.126;2022-08-25T08:16:22;2.65;;;2.20;;
54995;SDS011;40893;47.146;9.126;2022-08-25T08:18:49;2.50;;;2.30;;
54995;SDS011;40893;47.146;9.126;2022-08-25T08:21:18;3.50;;;1.95;;
54995;SDS011;40893;47.146;9.126;2022-08-25T08:23:46;2.30;;;1.77;;
54995;SDS011;40893;47.146;9.126;2022-08-25T08:26:13;3.03;;;1.92;;
54995;SDS011;40893;47.146;9.126;2022-08-25T08:28:39;2.97;;;1.98;;
54995;SDS011;40893;47.146;9.126;2022-08-25T08:31:04;3.25;;;2.20;;
54995;SDS011;40893;47.146;9.126;2022-08-25T08:33:30;2.55;;;1.90;;
54995;SDS011;40893;47.146;9.126;2022-08-25T08:36:02;7.65;;;2.10;;
54995;SDS011;40893;47.146;9.126;2022-08-25T08:38:31;4.50;;;2.17;;
54995;SDS011;40893;47.146;9.126;2022-08-25T08:43:45;2.17;;;2.03;;
54995;SDS011;40893;47.146;9.126;2022-08-25T08:46:15;2.30;;;2.10;;
54995;SDS011;40893;47.146;9.126;2022-08-25T08:51:31;2.70;;;2.28;;
54995;SDS011;40893;47.146;9.126;2022-08-25T08:54:13;2.03;;;1.83;;
54995;SDS011;40893;47.146;9.126;2022-08-25T08:56:44;3.67;;;2.08;;
54995;SDS011;40893;47.146;9.126;2022-08-25T08:59:18;3.03;;;1.90;;
54995;SDS011;40893;47.146;9.126;2022-08-25T09:01:53;4.32;;;2.30;;
54995;SDS011;40893;47.146;9.126;2022-08-25T09:06:57;2.97;;;1.92;;
54995;SDS011;40893;47.146;9.126;2022-08-25T09:09:25;2.70;;;2.20;;
54995;SDS011;40893;47.146;9.126;2022-08-25T09:22:54;2.45;;;2.25;;
54995;SDS011;40893;47.146;9.126;2022-08-25T09:25:59;3.15;;;2.17;;
54995;SDS011;40893;47.146;9.126;2022-08-25T09:31:23;3.97;;;2.13;;
54995;SDS011;40893;47.146;9.126;2022-08-25T09:33:53;3.60;;;2.25;;
54995;SDS011;40893;47.146;9.126;2022-08-25T09:36:21;5.15;;;1.85;;
54995;SDS011;40893;47.146;9.126;2022-08-25T09:38:47;5.70;;;2.35;;
54995;SDS011;40893;47.146;9.126;2022-08-25T09:41:17;4.38;;;2.17;;
54995;SDS011;40893;47.146;9.126;2022-08-25T09:43:59;3.10;;;2.10;;
54995;SDS011;40893;47.146;9.126;2022-08-25T09:46:27;6.60;;;2.50;;
54995;SDS011;40893;47.146;9.126;2022-08-25T09:48:54;5.10;;;2.85;;
54995;SDS011;40893;47.146;9.126;2022-08-25T09:51:31;3.00;;;2.42;;
54995;SDS011;40893;47.146;9.126;2022-08-25T09:53:59;6.95;;;2.45;;
54995;SDS011;40893;47.146;9.126;2022-08-25T09:57:01;2.88;;;2.50;;
54995;SDS011;40893;47.146;9.126;2022-08-25T09:59:33;6.43;;;2.40;;
54995;SDS011;40893;47.146;9.126;2022-08-25T10:02:21;6.80;;;2.35;;
54995;SDS011;40893;47.146;9.126;2022-08-25T10:04:49;4.57;;;2.50;;
54995;SDS011;40893;47.146;9.126;2022-08-25T10:10:03;4.03;;;2.60;;
54995;SDS011;40893;47.146;9.126;2022-08-25T10:12:41;4.03;;;2.20;;
54995;SDS011;40893;47.146;9.126;2022-08-25T10:17:43;4.68;;;2.67;;
54995;SDS011;40893;47.146;9.126;2022-08-25T10:22:34;4.13;;;2.40;;
54995;SDS011;40893;47.146;9.126;2022-08-25T10:25:05;5.85;;;2.80;;
54995;SDS011;40893;47.146;9.126;2022-08-25T10:37:07;3.92;;;2.92;;
54995;SDS011;40893;47.146;9.126;2022-08-25T10:39:37;4.57;;;2.50;;
54995;SDS011;40893;47.146;9.126;2022-08-25T10:44:45;4.53;;;2.70;;
54995;SDS011;40893;47.146;9.126;2022-08-25T10:48:09;2.83;;;2.63;;
54995;SDS011;40893;47.146;9.126;2022-08-25T10:50:45;2.55;;;2.10;;
54995;SDS011;40893;47.146;9.126;2022-08-25T11:07:07;4.40;;;2.60;;
54995;SDS011;40893;47.146;9.126;2022-08-25T11:09:37;3.35;;;2.80;;
54995;SDS011;40893;47.146;9.126;2022-08-25T11:14:51;3.45;;;2.50;;
54995;SDS011;40893;47.146;9.126;2022-08-25T11:20:04;3.45;;;2.90;;
54995;SDS011;40893;47.146;9.126;2022-08-25T11:22:44;4.72;;;2.80;;
54995;SDS011;40893;47.146;9.126;2022-08-25T11:25:31;3.47;;;2.85;;
54995;SDS011;40893;47.146;9.126;2022-08-25T11:30:49;5.28;;;3.10;;
54995;SDS011;40893;47.146;9.126;2022-08-25T11:33:17;3.42;;;2.75;;
54995;SDS011;40893;47.146;9.126;2022-08-25T11:35:50;3.97;;;2.83;;
54995;SDS011;40893;47.146;9.126;2022-08-25T11:41:05;7.15;;;3.00;;
54995;SDS011;40893;47.146;9.126;2022-08-25T11:44:06;3.00;;;2.80;;
54995;SDS011;40893;47.146;9.126;2022-08-25T11:55:15;4.60;;;2.88;;
54995;SDS011;40893;47.146;9.126;2022-08-25T11:58:13;9.32;;;3.33;;
54995;SDS011;40893;47.146;9.126;2022-08-25T12:00:41;9.60;;;3.47;;
54995;SDS011;40893;47.146;9.126;2022-08-25T12:06:15;12.13;;;3.10;;
54995;SDS011;40893;47.146;9.126;2022-08-25T12:08:52;6.45;;;3.20;;
54995;SDS011;40893;47.146;9.126;2022-08-25T12:27:08;5.38;;;3.00;;
54995;SDS011;40893;47.146;9.126;2022-08-25T12:29:57;7.93;;;2.78;;
54995;SDS011;40893;47.146;9.126;2022-08-25T12:35:48;8.88;;;2.90;;
54995;SDS011;40893;47.146;9.126;2022-08-25T12:38:36;8.40;;;3.05;;
54995;SDS011;40893;47.146;9.126;2022-08-25T12:41:14;6.85;;;2.83;;
54995;SDS011;40893;47.146;9.126;2022-08-25T12:43:47;6.57;;;2.95;;
54995;SDS011;40893;47.146;9.126;2022-08-25T12:48:54;6.43;;;2.60;;
54995;SDS011;40893;47.146;9.126;2022-08-25T12:51:39;7.38;;;2.47;;
54995;SDS011;40893;47.146;9.126;2022-08-25T12:56:49;5.90;;;2.72;;
54995;SDS011;40893;47.146;9.126;2022-08-25T12:59:34;5.78;;;2.92;;
54995;SDS011;40893;47.146;9.126;2022-08-25T13:02:21;3.33;;;2.90;;
54995;SDS011;40893;47.146;9.126;2022-08-25T13:08:23;10.18;;;3.10;;
54995;SDS011;40893;47.146;9.126;2022-08-25T13:11:19;5.82;;;2.80;;
54995;SDS011;40893;47.146;9.126;2022-08-25T13:13:54;4.93;;;2.42;;
54995;SDS011;40893;47.146;9.126;2022-08-25T13:16:50;5.32;;;2.65;;
54995;SDS011;40893;47.146;9.126;2022-08-25T13:19:20;3.55;;;2.35;;
54995;SDS011;40893;47.146;9.126;2022-08-25T13:21:47;3.47;;;1.73;;
54995;SDS011;40893;47.146;9.126;2022-08-25T13:24:17;3.72;;;2.10;;
54995;SDS011;40893;47.146;9.126;2022-08-25T13:26:51;4.43;;;2.17;;
54995;SDS011;40893;47.146;9.126;2022-08-25T13:29:24;2.33;;;2.08;;
54995;SDS011;40893;47.146;9.126;2022-08-25T13:31:58;2.45;;;1.88;;
54995;SDS011;40893;47.146;9.126;2022-08-25T13:34:39;3.10;;;1.83;;
54995;SDS011;40893;47.146;9.126;2022-08-25T13:37:07;2.10;;;1.77;;
54995;SDS011;40893;47.146;9.126;2022-08-25T13:42:33;2.90;;;1.98;;
54995;SDS011;40893;47.146;9.126;2022-08-25T13:45:00;1.90;;;1.80;;
54995;SDS011;40893;47.146;9.126;2022-08-25T13:58:12;2.13;;;1.90;;
54995;SDS011;40893;47.146;9.126;2022-08-25T14:00:43;2.95;;;1.92;;
54995;SDS011;40893;47.146;9.126;2022-08-25T14:03:30;3.15;;;2.25;;
54995;SDS011;40893;47.146;9.126;2022-08-25T14:06:08;2.15;;;1.90;;
54995;SDS011;40893;47.146;9.126;2022-08-25T14:08:41;2.40;;;2.20;;
54995;SDS011;40893;47.146;9.126;2022-08-25T14:11:11;2.47;;;1.98;;
54995;SDS011;40893;47.146;9.126;2022-08-25T14:13:39;4.78;;;2.10;;
54995;SDS011;40893;47.146;9.126;2022-08-25T14:16:19;3.75;;;2.22;;
54995;SDS011;40893;47.146;9.126;2022-08-25T14:18:48;3.58;;;2.20;;
54995;SDS011;40893;47.146;9.126;2022-08-25T14:21:16;2.50;;;2.30;;
54995;SDS011;40893;47.146;9.126;2022-08-25T14:23:45;2.65;;;2.20;;
54995;SDS011;40893;47.146;9.126;2022-08-25T14:26:11;3.00;;;2.08;;
54995;SDS011;40893;47.146;9.126;2022-08-25T14:28:37;2.58;;;2.08;;
54995;SDS011;40893;47.146;9.126;2022-08-25T14:33:39;4.00;;;2.42;;
54995;SDS011;40893;47.146;9.126;2022-08-25T14:36:08;4.72;;;2.72;;
54995;SDS011;40893;47.146;9.126;2022-08-25T14:38:34;2.80;;;2.05;;
54995;SDS011;40893;47.146;9.126;2022-08-25T14:41:03;3.67;;;2.50;;
54995;SDS011;40893;47.146;9.126;2022-08-25T14:43:30;2.60;;;2.40;;
54995;SDS011;40893;47.146;9.126;2022-08-25T14:45:55;3.95;;;2.45;;
54995;SDS011;40893;47.146;9.126;2022-08-25T14:48:28;3.05;;;2.30;;
54995;SDS011;40893;47.146;9.126;2022-08-25T14:50:56;3.40;;;2.10;;
54995;SDS011;40893;47.146;9.126;2022-08-25T14:53:24;4.40;;;2.60;;
54995;SDS011;40893;47.146;9.126;2022-08-25T14:55:50;4.45;;;2.42;;
54995;SDS011;40893;47.146;9.126;2022-08-25T14:58:20;7.65;;;3.10;;
54995;SDS011;40893;47.146;9.126;2022-08-25T15:00:46;6.50;;;2.95;;
54995;SDS011;40893;47.146;9.126;2022-08-25T15:03:14;3.33;;;3.00;;
54995;SDS011;40893;47.146;9.126;2022-08-25T15:05:44;5.65;;;2.58;;
54995;SDS011;40893;47.146;9.126;2022-08-25T15:08:09;5.45;;;2.72;;
54995;SDS011;40893;47.146;9.126;2022-08-25T15:10:53;3.63;;;2.88;;
54995;SDS011;40893;47.146;9.126;2022-08-25T15:13:19;5.57;;;2.80;;
54995;SDS011;40893;47.146;9.126;2022-08-25T15:15:45;4.43;;;3.10;;
54995;SDS011;40893;47.146;9.126;2022-08-25T15:18:12;3.65;;;3.03;;
54995;SDS011;40893;47.146;9.126;2022-08-25T15:20:38;6.40;;;2.90;;
54995;SDS011;40893;47.146;9.126;2022-08-25T15:23:04;5.88;;;2.90;;
54995;SDS011;40893;47.146;9.126;2022-08-25T15:25:29;5.70;;;3.17;;
54995;SDS011;40893;47.146;9.126;2022-08-25T15:27:55;5.05;;;2.85;;
54995;SDS011;40893;47.146;9.126;2022-08-25T15:30:21;4.40;;;3.13;;
54995;SDS011;40893;47.146;9.126;2022-08-25T15:32:47;3.30;;;2.70;;
54995;SDS011;40893;47.146;9.126;2022-08-25T15:35:12;5.05;;;3.08;;
54995;SDS011;40893;47.146;9.126;2022-08-25T15:37:38;7.10;;;3.28;;
54995;SDS011;40893;47.146;9.126;2022-08-25T15:40:04;8.50;;;3.40;;
54995;SDS011;40893;47.146;9.126;2022-08-25T15:42:32;5.80;;;3.00;;
54995;SDS011;40893;47.146;9.126;2022-08-25T15:44:58;6.05;;;3.00;;
54995;SDS011;40893;47.146;9.126;2022-08-25T15:47:24;4.35;;;2.83;;
54995;SDS011;40893;47.146;9.126;2022-08-25T15:49:51;7.72;;;3.28;;
54995;SDS011;40893;47.146;9.126;2022-08-25T15:52:27;5.13;;;3.20;;
54995;SDS011;40893;47.146;9.126;2022-08-25T15:54:52;6.30;;;2.80;;
54995;SDS011;40893;47.146;9.126;2022-08-25T15:57:18;6.70;;;3.53;;
54995;SDS011;40893;47.146;9.126;2022-08-25T15:59:43;6.85;;;3.55;;
54995;SDS011;40893;47.146;9.126;2022-08-25T16:02:09;5.68;;;2.63;;
54995;SDS011;40893;47.146;9.126;2022-08-25T16:04:34;8.70;;;3.33;;
54995;SDS011;40893;47.146;9.126;2022-08-25T16:07:00;7.25;;;3.10;;
54995;SDS011;40893;47.146;9.126;2022-08-25T16:09:26;6.63;;;2.83;;
54995;SDS011;40893;47.146;9.126;2022-08-25T16:11:52;4.60;;;2.88;;
54995;SDS011;40893;47.146;9.126;2022-08-25T16:14:17;5.60;;;2.80;;
54995;SDS011;40893;47.146;9.126;2022-08-25T16:16:43;5.63;;;2.83;;
54995;SDS011;40893;47.146;9.126;2022-08-25T16:19:08;6.20;;;3.10;;
54995;SDS011;40893;47.146;9.126;2022-08-25T16:21:34;5.32;;;3.15;;
54995;SDS011;40893;47.146;9.126;2022-08-25T16:24:02;10.80;;;3.03;;
54995;SDS011;40893;47.146;9.126;2022-08-25T16:26:29;5.10;;;3.00;;
54995;SDS011;40893;47.146;9.126;2022-08-25T16:28:56;4.15;;;3.40;;
54995;SDS011;40893;47.146;9.126;2022-08-25T16:31:21;5.68;;;3.05;;
54995;SDS011;40893;47.146;9.126;2022-08-25T16:33:48;5.55;;;3.25;;
54995;SDS011;40893;47.146;9.126;2022-08-25T16:36:19;3.00;;;2.72;;
54995;SDS011;40893;47.146;9.126;2022-08-25T16:38:47;5.97;;;3.20;;
54995;SDS011;40893;47.146;9.126;2022-08-25T16:41:14;4.68;;;3.13;;
54995;SDS011;40893;47.146;9.126;2022-08-25T16:43:42;4.72;;;3.22;;
54995;SDS011;40893;47.146;9.126;2022-08-25T16:46:09;7.15;;;2.78;;
54995;SDS011;40893;47.146;9.126;2022-08-25T16:48:36;6.82;;;3.03;;
54995;SDS011;40893;47.146;9.126;2022-08-25T16:51:06;4.70;;;2.85;;
54995;SDS011;40893;47.146;9.126;2022-08-25T16:53:32;11.05;;;3.33;;
54995;SDS011;40893;47.146;9.126;2022-08-25T16:56:16;5.18;;;3.47;;
54995;SDS011;40893;47.146;9.126;2022-08-25T16:58:41;5.03;;;3.30;;
54995;SDS011;40893;47.146;9.126;2022-08-25T17:01:09;6.97;;;3.17;;
54995;SDS011;40893;47.146;9.126;2022-08-25T17:03:37;3.42;;;3.10;;
54995;SDS011;40893;47.146;9.126;2022-08-25T17:06:04;3.67;;;3.20;;
54995;SDS011;40893;47.146;9.126;2022-08-25T17:08:31;4.63;;;3.35;;